createdAt,value
2022-12-03T00:00:54.466Z,32.12
2022-12-03T00:03:20.919Z,32.14
2022-12-03T00:05:49.209Z,32.12
2022-12-03T00:08:13.609Z,32.23
2022-12-03T00:10:40.095Z,32.23
2022-12-03T00:13:06.309Z,32.21
2022-12-03T00:15:32.689Z,32.22
2022-12-03T00:17:59.114Z,32.23
2022-12-03T00:20:25.462Z,32.24
2022-12-03T00:22:51.900Z,32.26
2022-12-03T00:25:18.241Z,32.23
2022-12-03T00:27:44.659Z,32.26
2022-12-03T00:30:11.004Z,32.25
2022-12-03T00:32:37.393Z,32.23
2022-12-03T00:35:03.738Z,32.35
2022-12-03T00:37:30.131Z,32.32
2022-12-03T00:39:56.479Z,32.37
2022-12-03T00:42:23.810Z,32.36
2022-12-03T00:44:49.226Z,32.36
2022-12-03T00:47:15.617Z,32.37
2022-12-03T00:49:41.959Z,32.33
2022-12-03T00:52:08.350Z,32.39
2022-12-03T00:54:34.698Z,32.41
2022-12-03T00:57:01.080Z,32.40
2022-12-03T00:59:27.424Z,32.43
2022-12-03T01:01:53.898Z,32.42
2022-12-03T01:04:20.222Z,32.47
2022-12-03T01:06:46.553Z,32.56
2022-12-03T01:09:12.890Z,32.47
2022-12-03T01:11:39.274Z,32.50
2022-12-03T01:14:05.619Z,32.57
2022-12-03T01:16:32.064Z,32.56
2022-12-03T01:18:58.412Z,32.56
2022-12-03T01:21:24.804Z,32.59
2022-12-03T01:23:51.147Z,32.56
2022-12-03T01:26:17.555Z,32.56
2022-12-03T01:28:43.907Z,32.60
2022-12-03T01:31:10.323Z,32.61
2022-12-03T01:33:36.632Z,32.60
2022-12-03T01:36:03.036Z,32.62
2022-12-03T01:38:29.372Z,32.66
2022-12-03T01:40:55.758Z,32.67
2022-12-03T01:43:22.105Z,32.71
2022-12-03T01:45:48.487Z,32.69
2022-12-03T01:48:14.822Z,32.75
2022-12-03T01:50:41.215Z,32.68
2022-12-03T01:53:07.562Z,32.69
2022-12-03T01:55:33.986Z,32.70
2022-12-03T01:58:00.326Z,32.71
2022-12-03T02:00:26.711Z,32.73
2022-12-03T02:02:53.055Z,32.71
2022-12-03T02:05:19.438Z,32.71
2022-12-03T02:07:45.818Z,32.75
2022-12-03T02:10:12.175Z,32.75
2022-12-03T02:12:38.525Z,32.75
2022-12-03T02:15:04.908Z,32.75
2022-12-03T02:17:31.252Z,32.76
2022-12-03T02:19:57.641Z,32.75
2022-12-03T02:22:23.989Z,32.76
2022-12-03T02:24:50.678Z,32.77
2022-12-03T02:27:16.706Z,32.78
2022-12-03T02:29:43.091Z,32.79
2022-12-03T02:32:09.488Z,32.81
2022-12-03T02:34:35.868Z,32.82
2022-12-03T02:37:02.200Z,32.82
2022-12-03T02:39:28.585Z,32.84
2022-12-03T02:41:54.920Z,32.84
2022-12-03T02:44:21.315Z,32.83
2022-12-03T02:46:47.755Z,32.84
2022-12-03T02:49:14.047Z,32.85
2022-12-03T02:51:40.389Z,32.86
2022-12-03T02:54:06.776Z,32.86
2022-12-03T02:56:33.116Z,32.88
2022-12-03T02:58:59.502Z,32.88
2022-12-03T03:01:25.910Z,32.90
2022-12-03T03:03:52.254Z,32.90
2022-12-03T03:06:19.557Z,32.90
2022-12-03T03:08:44.966Z,32.92
2022-12-03T03:11:11.320Z,32.91
2022-12-03T03:13:37.706Z,32.94
2022-12-03T03:16:04.154Z,32.97
2022-12-03T03:18:30.474Z,32.94
2022-12-03T03:20:56.841Z,32.99
2022-12-03T03:23:23.236Z,32.97
2022-12-03T03:25:49.579Z,32.95
2022-12-03T03:28:16.000Z,32.93
2022-12-03T03:30:42.344Z,32.94
2022-12-03T03:33:08.727Z,32.97
2022-12-03T03:35:35.072Z,32.95
2022-12-03T03:38:01.457Z,32.98
2022-12-03T03:40:27.805Z,33.02
2022-12-03T03:42:54.191Z,33.02
2022-12-03T03:45:25.489Z,33.03
2022-12-03T03:47:46.932Z,33.06
2022-12-03T03:50:13.269Z,33.07
2022-12-03T03:52:39.705Z,33.09
2022-12-03T03:55:06.045Z,33.08
2022-12-03T03:57:32.430Z,33.07
2022-12-03T03:59:59.725Z,33.10
2022-12-03T04:02:25.172Z,33.13
2022-12-03T04:04:51.845Z,33.10
2022-12-03T04:07:17.907Z,33.11
2022-12-03T04:09:44.253Z,33.17
2022-12-03T04:12:10.673Z,33.18
2022-12-03T04:14:37.018Z,33.19
2022-12-03T04:17:03.467Z,33.31
2022-12-03T04:19:29.745Z,33.28
2022-12-03T04:21:56.133Z,33.31
2022-12-03T04:24:22.481Z,33.30
2022-12-03T04:26:48.920Z,33.38
2022-12-03T04:29:15.677Z,33.33
2022-12-03T04:31:42.117Z,33.33
2022-12-03T04:34:08.474Z,33.39
2022-12-03T04:36:34.889Z,33.37
2022-12-03T04:39:01.237Z,33.42
2022-12-03T04:41:27.629Z,33.40
2022-12-03T04:43:53.979Z,33.46
2022-12-03T04:46:20.401Z,33.48
2022-12-03T04:48:46.713Z,33.48
2022-12-03T04:51:13.097Z,33.49
2022-12-03T04:53:45.851Z,33.55
2022-12-03T04:56:05.863Z,33.56
2022-12-03T04:58:32.202Z,33.59
2022-12-03T05:00:58.622Z,33.60
2022-12-03T05:03:24.923Z,33.65
2022-12-03T05:05:51.308Z,33.65
2022-12-03T05:10:55.914Z,33.66
2022-12-03T05:13:22.303Z,33.67
2022-12-03T05:15:49.708Z,33.68
2022-12-03T05:18:15.044Z,33.71
2022-12-03T05:20:41.392Z,33.71
2022-12-03T05:23:10.203Z,33.68
2022-12-03T05:25:36.569Z,33.72
2022-12-03T05:28:02.960Z,33.74
2022-12-03T05:30:29.379Z,33.73
2022-12-03T05:32:56.212Z,33.68
2022-12-03T05:35:22.616Z,33.73
2022-12-03T05:37:48.960Z,33.75
2022-12-03T05:40:15.345Z,33.75
2022-12-03T05:42:41.712Z,33.74
2022-12-03T05:45:08.098Z,33.75
2022-12-03T05:47:34.440Z,33.76
2022-12-03T05:50:00.818Z,33.75
2022-12-03T05:52:27.162Z,33.80
2022-12-03T05:54:53.815Z,33.78
2022-12-03T05:57:19.895Z,33.81
2022-12-03T05:59:46.276Z,33.78
2022-12-03T06:02:12.723Z,33.84
2022-12-03T06:04:39.006Z,33.76
2022-12-03T06:07:09.621Z,33.71
2022-12-03T06:09:31.742Z,33.57
2022-12-03T06:11:58.085Z,33.65
2022-12-03T06:14:24.465Z,33.59
2022-12-03T06:16:50.803Z,33.44
2022-12-03T06:19:17.184Z,33.35
2022-12-03T06:21:43.528Z,33.28
2022-12-03T06:24:09.905Z,33.23
2022-12-03T06:26:36.248Z,33.14
2022-12-03T06:29:03.664Z,32.97
2022-12-03T06:31:30.092Z,32.91
2022-12-03T06:33:56.391Z,32.77
2022-12-03T06:36:23.418Z,32.62
2022-12-03T06:38:49.148Z,32.68
2022-12-03T06:41:15.492Z,32.56
2022-12-03T06:43:41.984Z,32.39
2022-12-03T06:46:08.376Z,32.30
2022-12-03T06:48:34.726Z,32.15
2022-12-03T06:51:01.066Z,32.03
2022-12-03T06:53:27.451Z,31.96
2022-12-03T06:55:53.798Z,31.85
2022-12-03T06:58:20.198Z,31.69
2022-12-03T07:00:46.570Z,31.62
2022-12-03T07:03:12.982Z,31.55
2022-12-03T07:05:39.287Z,31.53
2022-12-03T07:08:05.717Z,31.51
2022-12-03T07:10:32.008Z,31.42
2022-12-03T07:12:58.396Z,31.36
2022-12-03T07:15:24.741Z,31.32
2022-12-03T07:17:51.146Z,31.26
2022-12-03T07:20:17.575Z,31.20
2022-12-03T07:22:43.957Z,31.15
2022-12-03T07:25:10.301Z,31.08
2022-12-03T07:27:36.696Z,31.00
2022-12-03T07:30:03.036Z,31.01
2022-12-03T07:32:29.420Z,30.94
2022-12-03T07:34:56.204Z,30.91
2022-12-03T07:37:23.515Z,30.85
2022-12-03T07:39:48.610Z,30.75
2022-12-03T07:42:14.992Z,30.66
2022-12-03T07:44:41.337Z,30.67
2022-12-03T07:47:07.811Z,30.54
2022-12-03T07:49:34.063Z,30.49
2022-12-03T07:52:00.472Z,30.40
2022-12-03T07:54:26.838Z,30.40
2022-12-03T07:56:57.965Z,30.35
2022-12-03T07:59:19.596Z,30.24
2022-12-03T08:01:46.087Z,30.22
2022-12-03T08:04:12.325Z,30.22
2022-12-03T08:06:38.709Z,30.16
2022-12-03T08:09:05.046Z,30.09
2022-12-03T08:11:31.489Z,30.09
2022-12-03T08:13:57.830Z,30.00
2022-12-03T08:16:24.294Z,29.95
2022-12-03T08:18:50.583Z,29.88
2022-12-03T08:21:16.999Z,29.84
2022-12-03T08:23:43.339Z,29.90
2022-12-03T08:26:09.753Z,29.83
2022-12-03T08:28:36.098Z,29.73
2022-12-03T08:31:02.530Z,29.69
2022-12-03T08:33:28.898Z,29.63
2022-12-03T08:35:55.292Z,29.54
2022-12-03T08:38:21.640Z,29.55
2022-12-03T08:40:48.020Z,29.51
2022-12-03T08:43:14.358Z,29.44
2022-12-03T08:45:40.853Z,29.43
2022-12-03T08:48:07.081Z,29.41
2022-12-03T08:50:33.477Z,29.35
2022-12-03T08:52:59.828Z,29.37
2022-12-03T08:55:26.211Z,29.32
2022-12-03T08:57:52.549Z,29.25
2022-12-03T09:00:18.934Z,29.27
2022-12-03T09:02:45.270Z,29.26
2022-12-03T09:05:12.657Z,29.21
2022-12-03T09:07:38.033Z,29.11
2022-12-03T09:10:04.388Z,29.17
2022-12-03T09:12:30.724Z,29.08
2022-12-03T09:14:57.114Z,29.02
2022-12-03T09:17:23.492Z,29.05
2022-12-03T09:19:49.877Z,29.00
2022-12-03T09:22:16.218Z,28.97
2022-12-03T09:24:42.595Z,28.92
2022-12-03T09:27:09.009Z,28.90
2022-12-03T09:29:36.679Z,28.87
2022-12-03T09:32:01.820Z,28.82
2022-12-03T09:34:28.148Z,28.81
2022-12-03T09:36:54.491Z,28.79
2022-12-03T09:39:20.875Z,28.79
2022-12-03T09:41:47.243Z,28.76
2022-12-03T09:44:17.663Z,28.76
2022-12-03T09:46:39.983Z,28.77
2022-12-03T09:49:10.758Z,28.73
2022-12-03T09:51:32.706Z,28.72
2022-12-03T09:53:59.093Z,28.69
2022-12-03T09:56:25.442Z,28.66
2022-12-03T09:58:51.830Z,28.63
2022-12-03T10:01:18.243Z,28.65
2022-12-03T10:03:44.561Z,28.56
2022-12-03T10:06:10.893Z,28.55
2022-12-03T10:08:37.283Z,28.53
2022-12-03T10:11:03.632Z,28.50
2022-12-03T10:13:30.025Z,28.45
2022-12-03T10:15:56.382Z,28.49
2022-12-03T10:18:22.773Z,28.44
2022-12-03T10:20:49.123Z,28.41
2022-12-03T10:23:15.505Z,28.38
2022-12-03T10:25:41.847Z,28.41
2022-12-03T10:28:09.594Z,28.34
2022-12-03T10:30:34.610Z,28.34
2022-12-03T10:33:00.976Z,28.30
2022-12-03T10:35:27.315Z,28.33
2022-12-03T10:37:53.737Z,28.32
2022-12-03T10:40:20.076Z,28.31
2022-12-03T10:42:46.456Z,28.31
2022-12-03T10:45:12.802Z,28.25
2022-12-03T10:47:39.366Z,28.21
2022-12-03T10:50:05.552Z,28.19
2022-12-03T10:52:31.986Z,28.20
2022-12-03T10:54:58.335Z,28.24
2022-12-03T10:57:24.753Z,28.24
2022-12-03T10:59:51.082Z,28.21
2022-12-03T11:02:17.471Z,28.24
2022-12-03T11:04:43.814Z,28.28
2022-12-03T11:07:10.209Z,28.24
2022-12-03T11:09:36.540Z,28.26
2022-12-03T11:12:02.938Z,28.20
2022-12-03T11:14:29.291Z,28.24
2022-12-03T11:16:55.686Z,28.21
2022-12-03T11:19:22.033Z,28.22
2022-12-03T11:21:48.451Z,28.23
2022-12-03T11:24:14.798Z,28.20
2022-12-03T11:26:41.183Z,28.15
2022-12-03T11:29:07.527Z,28.17
2022-12-03T11:31:33.989Z,28.15
2022-12-03T11:34:00.262Z,28.11
2022-12-03T11:36:47.760Z,28.17
2022-12-03T11:38:53.922Z,28.12
2022-12-03T11:41:19.405Z,28.14
2022-12-03T11:43:45.752Z,28.15
2022-12-03T11:46:12.178Z,28.13
2022-12-03T11:48:38.481Z,28.17
2022-12-03T11:51:04.868Z,28.16
2022-12-03T11:53:31.359Z,28.15
2022-12-03T11:56:01.413Z,28.14
2022-12-03T11:58:25.013Z,28.21
2022-12-03T12:00:50.804Z,28.16
2022-12-03T12:03:17.236Z,28.19
2022-12-03T12:05:43.558Z,28.19
2022-12-03T12:08:09.927Z,28.16
2022-12-03T12:10:36.284Z,28.19
2022-12-03T12:13:02.644Z,28.21
2022-12-03T12:15:29.042Z,28.22
2022-12-03T12:17:55.390Z,28.20
2022-12-03T12:20:21.783Z,28.17
2022-12-03T12:22:48.128Z,28.21
2022-12-03T12:25:14.512Z,28.24
2022-12-03T12:27:40.848Z,28.22
2022-12-03T12:30:07.401Z,28.22
2022-12-03T12:32:33.753Z,28.20
2022-12-03T12:35:00.133Z,28.22
2022-12-03T12:37:26.465Z,28.18
2022-12-03T12:39:53.312Z,28.21
2022-12-03T12:42:19.199Z,28.17
2022-12-03T12:44:45.604Z,28.21
2022-12-03T12:47:11.962Z,28.19
2022-12-03T12:49:38.332Z,28.23
2022-12-03T12:52:04.668Z,28.24
2022-12-03T12:54:31.064Z,28.24
2022-12-03T12:56:57.456Z,28.24
2022-12-03T12:59:23.841Z,28.25
2022-12-03T13:01:50.261Z,28.28
2022-12-03T13:04:16.579Z,28.28
2022-12-03T13:06:42.920Z,28.29
2022-12-03T13:09:09.309Z,28.23
2022-12-03T13:11:35.643Z,28.28
2022-12-03T13:14:02.024Z,28.28
2022-12-03T13:16:28.454Z,28.27
2022-12-03T13:18:54.839Z,28.24
2022-12-03T13:21:21.184Z,28.28
2022-12-03T13:23:47.626Z,28.26
2022-12-03T13:26:31.736Z,28.22
2022-12-03T13:28:40.365Z,28.29
2022-12-03T13:31:06.736Z,28.24
2022-12-03T13:33:33.082Z,28.21
2022-12-03T13:35:59.423Z,28.18
2022-12-03T13:38:25.807Z,28.22
2022-12-03T13:40:52.148Z,28.21
2022-12-03T13:43:18.558Z,28.21
2022-12-03T13:45:44.972Z,28.23
2022-12-03T13:48:11.286Z,28.23
2022-12-03T13:50:37.633Z,28.21
2022-12-03T13:53:04.020Z,28.21
2022-12-03T13:55:30.401Z,28.24
2022-12-03T13:57:56.786Z,28.21
2022-12-03T14:00:23.148Z,28.22
2022-12-03T14:02:49.565Z,28.21
2022-12-03T14:05:15.867Z,28.23
2022-12-03T14:07:42.293Z,28.21
2022-12-03T14:10:08.589Z,28.20
2022-12-03T14:12:34.986Z,28.17
2022-12-03T14:15:02.427Z,28.14
2022-12-03T14:17:27.769Z,28.17
2022-12-03T14:19:54.521Z,28.15
2022-12-03T14:22:20.487Z,28.13
2022-12-03T14:24:46.828Z,28.10
2022-12-03T14:27:14.537Z,28.13
2022-12-03T14:29:39.582Z,28.12
2022-12-03T14:32:06.016Z,28.10
2022-12-03T14:34:32.308Z,28.12
2022-12-03T14:36:58.707Z,28.11
2022-12-03T14:39:25.053Z,28.08
2022-12-03T14:41:51.438Z,28.08
2022-12-03T14:44:17.788Z,28.03
2022-12-03T14:46:44.197Z,28.07
2022-12-03T14:49:10.540Z,28.00
2022-12-03T14:51:36.923Z,28.07
2022-12-03T14:54:03.275Z,28.05
2022-12-03T14:56:29.689Z,28.07
2022-12-03T14:58:56.042Z,28.06
2022-12-03T15:01:24.664Z,28.07
2022-12-03T15:03:50.947Z,27.99
2022-12-03T15:06:17.335Z,28.00
2022-12-03T15:08:43.695Z,28.11
2022-12-03T15:11:10.074Z,28.13
2022-12-03T15:13:36.445Z,28.12
2022-12-03T15:16:02.868Z,28.14
2022-12-03T15:18:29.215Z,28.18
2022-12-03T15:20:55.597Z,28.21
2022-12-03T15:23:22.000Z,28.23
2022-12-03T15:25:48.383Z,28.26
2022-12-03T15:28:14.728Z,28.30
2022-12-03T15:30:41.118Z,28.30
2022-12-03T15:33:07.460Z,28.31
2022-12-03T15:35:33.848Z,28.34
2022-12-03T15:38:00.190Z,28.39
2022-12-03T15:40:26.585Z,28.38
2022-12-03T15:42:52.932Z,28.45
2022-12-03T15:45:19.316Z,28.49
2022-12-03T15:47:45.651Z,28.55
2022-12-03T15:50:12.039Z,28.54
2022-12-03T15:52:38.372Z,28.57
2022-12-03T15:55:04.767Z,28.64
2022-12-03T15:57:31.159Z,28.73
2022-12-03T15:59:57.718Z,28.77
2022-12-03T16:02:23.902Z,28.85
2022-12-03T16:04:50.218Z,28.89
2022-12-03T16:07:16.601Z,28.92
2022-12-03T16:09:42.939Z,28.95
2022-12-03T16:12:09.461Z,29.00
2022-12-03T16:14:35.801Z,29.03
2022-12-03T16:17:02.189Z,29.04
2022-12-03T16:19:28.526Z,29.08
2022-12-03T16:21:56.313Z,29.08
2022-12-03T16:24:21.262Z,29.14
2022-12-03T16:26:47.650Z,29.21
2022-12-03T16:29:13.994Z,29.24
2022-12-03T16:31:40.474Z,29.22
2022-12-03T16:34:07.929Z,29.20
2022-12-03T16:36:33.111Z,29.27
2022-12-03T16:38:59.461Z,29.31
2022-12-03T16:41:25.849Z,29.31
2022-12-03T16:43:52.197Z,29.30
2022-12-03T16:46:18.645Z,29.35
2022-12-03T16:48:44.933Z,29.39
2022-12-03T16:51:11.325Z,29.40
2022-12-03T16:53:37.670Z,29.42
2022-12-03T16:56:04.085Z,29.53
2022-12-03T16:58:30.411Z,29.53
2022-12-03T17:03:42.028Z,29.62
2022-12-03T17:06:08.412Z,29.63
2022-12-03T17:08:34.747Z,29.66
2022-12-03T17:11:01.216Z,29.63
2022-12-03T17:13:27.508Z,29.69
2022-12-03T17:15:53.913Z,29.73
2022-12-03T17:18:20.435Z,29.75
2022-12-03T17:20:46.787Z,29.76
2022-12-03T17:23:13.117Z,29.77
2022-12-03T17:25:39.507Z,29.82
2022-12-03T17:28:05.852Z,29.78
2022-12-03T17:30:32.225Z,29.87
2022-12-03T17:32:58.565Z,29.87
2022-12-03T17:35:24.957Z,29.83
2022-12-03T17:37:51.298Z,29.92
2022-12-03T17:40:17.687Z,29.97
2022-12-03T17:42:44.027Z,29.88
2022-12-03T17:45:10.414Z,29.88
2022-12-03T17:47:37.945Z,29.93
2022-12-03T17:50:03.157Z,29.91
2022-12-03T17:52:29.498Z,29.95
2022-12-03T17:55:10.449Z,29.93
2022-12-03T17:57:22.279Z,29.96
2022-12-03T17:59:48.688Z,30.01
2022-12-03T18:02:15.032Z,30.09
2022-12-03T18:04:41.413Z,30.08
2022-12-03T18:07:07.754Z,30.06
2022-12-03T18:09:34.140Z,30.08
2022-12-03T18:12:00.479Z,30.04
2022-12-03T18:14:26.864Z,30.06
2022-12-03T18:16:53.204Z,30.11
2022-12-03T18:19:19.598Z,30.12
2022-12-03T18:21:45.944Z,30.11
2022-12-03T18:24:12.328Z,30.15
2022-12-03T18:26:38.663Z,30.20
2022-12-03T18:29:05.051Z,30.24
2022-12-03T18:31:31.499Z,30.24
2022-12-03T18:33:57.787Z,30.22
2022-12-03T18:36:24.135Z,30.29
2022-12-03T18:38:50.515Z,30.30
2022-12-03T18:41:16.863Z,30.32
2022-12-03T18:43:43.252Z,30.33
2022-12-03T18:46:25.271Z,30.34
2022-12-03T18:48:35.980Z,30.37
2022-12-03T18:51:02.324Z,30.39
2022-12-03T18:53:28.705Z,30.37
2022-12-03T18:55:55.089Z,30.43
2022-12-03T18:58:21.467Z,30.41
2022-12-03T19:00:47.883Z,30.51
2022-12-03T19:03:14.308Z,30.50
2022-12-03T19:05:40.531Z,30.52
2022-12-03T19:08:07.042Z,30.60
2022-12-03T19:10:33.266Z,30.56
2022-12-03T19:12:59.653Z,30.57
2022-12-03T19:15:25.998Z,30.61
2022-12-03T19:17:52.384Z,30.59
2022-12-03T19:20:18.726Z,30.59
2022-12-03T19:22:45.129Z,30.69
2022-12-03T19:25:11.469Z,30.66
2022-12-03T19:27:37.847Z,30.74
2022-12-03T19:30:04.190Z,30.72
2022-12-03T19:32:30.581Z,30.79
2022-12-03T19:34:56.920Z,30.77
2022-12-03T19:37:23.337Z,30.84
2022-12-03T19:39:49.682Z,30.85
2022-12-03T19:42:16.098Z,30.91
2022-12-03T19:44:42.439Z,30.92
2022-12-03T19:47:08.857Z,30.94
2022-12-03T19:49:35.206Z,30.95
2022-12-03T19:52:01.594Z,31.00
2022-12-03T19:54:27.953Z,30.98
2022-12-03T19:56:54.339Z,31.03
2022-12-03T19:59:20.697Z,31.11
2022-12-03T20:01:47.224Z,31.08
2022-12-03T20:04:13.489Z,31.07
2022-12-03T20:06:39.874Z,31.11
2022-12-03T20:09:06.223Z,31.17
2022-12-03T20:11:32.664Z,31.17
2022-12-03T20:13:59.007Z,31.17
2022-12-03T20:16:25.481Z,31.20
2022-12-03T20:18:51.744Z,31.25
2022-12-03T20:21:18.135Z,31.28
2022-12-03T20:23:44.474Z,31.36
2022-12-03T20:26:10.857Z,31.30
2022-12-03T20:28:37.200Z,31.33
2022-12-03T20:31:03.592Z,31.36
2022-12-03T20:33:29.920Z,31.37
2022-12-03T20:35:56.326Z,31.43
2022-12-03T20:38:22.661Z,31.43
2022-12-03T20:40:49.047Z,31.49
2022-12-03T20:43:15.397Z,31.45
2022-12-03T20:45:41.794Z,31.49
2022-12-03T20:48:08.109Z,31.55
2022-12-03T20:50:34.496Z,31.53
2022-12-03T20:53:23.299Z,31.53
2022-12-03T20:55:27.217Z,31.56
2022-12-03T20:57:53.574Z,31.62
2022-12-03T21:00:19.957Z,31.62
2022-12-03T21:02:46.377Z,31.59
2022-12-03T21:05:12.693Z,31.61
2022-12-03T21:07:39.046Z,31.62
2022-12-03T21:10:05.486Z,31.70
2022-12-03T21:12:31.828Z,31.72
2022-12-03T21:14:58.212Z,31.78
2022-12-03T21:17:24.617Z,31.77
2022-12-03T21:19:50.945Z,31.84
2022-12-03T21:22:17.286Z,31.87
2022-12-03T21:24:43.672Z,31.91
2022-12-03T21:27:10.014Z,31.94
2022-12-03T21:29:36.401Z,31.92
2022-12-03T21:32:02.737Z,31.98
2022-12-03T21:34:35.855Z,32.01
2022-12-03T21:36:55.548Z,32.02
2022-12-03T21:39:21.933Z,32.07
2022-12-03T21:42:34.235Z,32.06
2022-12-03T21:44:14.673Z,32.11
2022-12-03T21:47:10.953Z,32.17
2022-12-03T21:49:07.434Z,32.23
2022-12-03T21:51:33.779Z,32.27
2022-12-03T21:54:00.158Z,32.24
2022-12-03T21:56:26.496Z,32.28
2022-12-03T21:58:52.876Z,32.32
2022-12-03T22:01:19.299Z,32.35
2022-12-03T22:03:46.571Z,32.37
2022-12-03T22:06:11.970Z,32.36
2022-12-03T22:08:38.346Z,32.44
2022-12-03T22:11:04.686Z,32.44
2022-12-03T22:13:31.075Z,32.46
2022-12-03T22:15:57.493Z,32.48
2022-12-03T22:18:23.829Z,32.46
2022-12-03T22:20:50.209Z,32.48
2022-12-03T22:23:16.584Z,32.57
2022-12-03T22:25:42.924Z,32.47
2022-12-03T22:28:09.312Z,32.57
2022-12-03T22:30:35.717Z,32.60
2022-12-03T22:33:02.071Z,32.56
2022-12-03T22:35:28.407Z,32.52
2022-12-03T22:37:54.797Z,32.60
2022-12-03T22:40:21.146Z,32.62
2022-12-03T22:42:50.966Z,32.59
2022-12-03T22:45:13.888Z,32.61
2022-12-03T22:47:40.268Z,32.61
2022-12-03T22:50:06.609Z,32.62
2022-12-03T22:52:33.003Z,32.62
2022-12-03T22:54:59.339Z,32.62
2022-12-03T22:57:25.737Z,32.59
2022-12-03T22:59:52.267Z,32.64
2022-12-03T23:02:18.554Z,32.64
2022-12-03T23:04:44.827Z,32.63
2022-12-03T23:07:11.222Z,32.62
2022-12-03T23:09:37.627Z,32.68
2022-12-03T23:12:04.018Z,32.61
2022-12-03T23:14:30.384Z,32.59
2022-12-03T23:16:56.772Z,32.58
2022-12-03T23:19:23.140Z,32.56
2022-12-03T23:21:49.543Z,32.58
2022-12-03T23:24:15.889Z,32.53
2022-12-03T23:26:42.274Z,32.58
2022-12-03T23:29:08.796Z,32.62
2022-12-03T23:31:35.099Z,32.64
2022-12-03T23:34:01.481Z,32.66
2022-12-03T23:36:27.732Z,32.62
2022-12-03T23:38:54.079Z,32.68
2022-12-03T23:41:20.457Z,32.67
2022-12-03T23:43:46.798Z,32.69
2022-12-03T23:46:13.255Z,32.73
2022-12-03T23:48:39.552Z,32.72
2022-12-03T23:51:05.941Z,32.67
2022-12-03T23:53:32.283Z,32.75
2022-12-03T23:55:58.689Z,32.76
2022-12-03T23:58:25.024Z,32.80
